Time;durP1;ratioP1;P1;durP2;ratioP2;P2;SDS_P1;SDS_P2;PMS_P1;PMS_P2;Temp;Humidity;BMP_temperature;BMP_pressure;BME280_temperature;BME280_humidity;BME280_pressure;Samples;Min_cycle;Max_cycle;Signal;HPM_P1;HPM_P2
2021/05/08 00:02:23;;;;;;;5.93;1.63;;;;;;;18.93;44.44;101726.53;5071886;28;20553;-61
2021/05/08 00:04:49;;;;;;;3.40;1.15;;;;;;;18.90;44.46;101731.16;5071452;28;20025;-61
2021/05/08 00:07:14;;;;;;;4.28;1.20;;;;;;;18.90;44.44;101726.75;5071195;28;20036;-61
2021/05/08 00:09:40;;;;;;;4.72;1.50;;;;;;;18.89;44.43;101718.94;5071550;28;20203;-61
2021/05/08 00:12:05;;;;;;;3.60;1.20;;;;;;;18.87;44.12;101720.81;5072300;28;20025;-61
2021/05/08 00:14:33;;;;;;;6.53;1.40;;;;;;;18.87;44.12;101712.88;5071717;28;20025;-61
2021/05/08 00:16:59;;;;;;;4.60;1.40;;;;;;;18.84;44.47;101714.81;5071112;28;20035;-59
2021/05/08 00:19:24;;;;;;;3.97;1.23;;;;;;;18.84;44.22;101717.44;5071654;28;20024;-61
2021/05/08 00:21:51;;;;;;;3.57;1.00;;;;;;;18.80;44.14;101709.81;5071918;28;20373;-61
2021/05/08 00:24:16;;;;;;;6.43;1.20;;;;;;;18.81;44.11;101699.13;5071118;28;20257;-61
2021/05/08 00:26:41;;;;;;;3.15;1.30;;;;;;;18.81;44.17;101708.88;5071786;28;20025;-61
2021/05/08 00:29:06;;;;;;;4.37;1.47;;;;;;;18.79;44.06;101702.88;5071703;28;20040;-60
2021/05/08 00:31:33;;;;;;;3.50;1.50;;;;;;;18.79;44.29;101701.06;5070625;28;20701;-60
2021/05/08 00:34:00;;;;;;;4.55;1.23;;;;;;;18.78;44.27;101694.06;5071759;28;20364;-60
2021/05/08 00:36:26;;;;;;;4.03;1.60;;;;;;;18.76;43.98;101693.34;5071131;28;20024;-60
2021/05/08 00:38:51;;;;;;;4.80;1.40;;;;;;;18.77;44.23;101697.69;5071090;28;20050;-61
2021/05/08 00:41:16;;;;;;;5.60;1.75;;;;;;;18.76;44.18;101693.34;5071530;28;20740;-61
2021/05/08 00:43:42;;;;;;;3.67;1.30;;;;;;;18.75;44.00;101694.28;5071570;28;20016;-60
2021/05/08 00:46:07;;;;;;;4.47;1.70;;;;;;;18.75;43.90;101682.88;5071020;28;20046;-60
2021/05/08 00:48:34;;;;;;;5.40;1.50;;;;;;;18.73;44.08;101690.91;5070904;28;20230;-61
2021/05/08 00:50:59;;;;;;;3.83;1.40;;;;;;;18.72;44.14;101686.59;5071533;28;20451;-61
2021/05/08 00:53:25;;;;;;;4.70;1.40;;;;;;;18.70;44.25;101683.22;5070675;28;20123;-61
2021/05/08 00:55:51;;;;;;;3.33;1.35;;;;;;;18.69;44.21;101673.59;5071732;28;20039;-61
2021/05/08 00:58:18;;;;;;;4.82;1.60;;;;;;;18.71;44.01;101678.75;5071289;28;20016;-61
2021/05/08 01:00:44;;;;;;;3.92;1.38;;;;;;;18.70;44.11;101671.81;5070914;28;20048;-61
2021/05/08 01:03:09;;;;;;;4.95;1.30;;;;;;;18.68;44.00;101666.66;5071573;28;20487;-60
2021/05/08 01:05:38;;;;;;;4.18;1.30;;;;;;;18.68;43.98;101671.94;5070796;28;20365;-61
2021/05/08 01:08:04;;;;;;;5.40;1.80;;;;;;;18.67;44.04;101676.38;5070539;28;20024;-60
2021/05/08 01:10:31;;;;;;;6.47;1.40;;;;;;;18.65;44.09;101670.34;5071222;28;20422;-61
2021/05/08 01:12:57;;;;;;;4.85;1.48;;;;;;;18.65;44.13;101669.50;5070747;28;20059;-61
2021/05/08 01:15:24;;;;;;;5.10;1.50;;;;;;;18.64;44.03;101676.59;5071091;28;20070;-61
2021/05/08 01:17:50;;;;;;;3.90;1.52;;;;;;;18.63;44.04;101671.41;5071300;28;20104;-61
2021/05/08 01:20:16;;;;;;;4.55;1.50;;;;;;;18.64;44.19;101667.81;5070431;28;20028;-61
2021/05/08 01:22:41;;;;;;;5.53;1.60;;;;;;;18.61;44.30;101660.97;5071591;28;20024;-61
2021/05/08 01:25:12;;;;;;;5.57;1.92;;;;;;;18.61;44.26;101662.72;5071376;28;20021;-62
2021/05/08 01:27:50;;;;;;;5.32;1.83;;;;;;;18.61;43.86;101662.72;5070369;28;20031;-61
2021/05/08 01:30:19;;;;;;;4.90;1.73;;;;;;;18.60;43.82;101663.72;5070886;28;20031;-61
2021/05/08 01:32:46;;;;;;;6.22;1.70;;;;;;;18.58;44.01;101650.63;5071114;28;20028;-61
2021/05/08 01:35:12;;;;;;;4.45;1.52;;;;;;;18.58;44.17;101657.66;5070910;28;20024;-61
2021/05/08 01:37:41;;;;;;;5.07;1.90;;;;;;;18.58;43.97;101652.38;5071289;28;20033;-61
2021/05/08 01:40:11;;;;;;;5.22;1.75;;;;;;;18.56;44.19;101646.38;5071345;28;20108;-60
2021/05/08 01:42:39;;;;;;;7.30;2.15;;;;;;;18.55;44.17;101650.81;5070123;28;20111;-60
2021/05/08 01:45:08;;;;;;;4.00;1.67;;;;;;;18.56;44.23;101643.75;5070768;28;20406;-61
2021/05/08 01:47:33;;;;;;;4.88;1.80;;;;;;;18.55;43.84;101639.41;5070399;28;20048;-61
2021/05/08 01:50:04;;;;;;;3.83;1.50;;;;;;;18.52;43.89;101635.22;5070259;28;20036;-61
2021/05/08 01:52:29;;;;;;;5.45;1.50;;;;;;;18.49;44.25;101630.97;5070831;28;20108;-61
2021/05/08 01:54:55;;;;;;;6.63;2.17;;;;;;;18.50;43.80;101629.19;5072082;28;20501;-61
2021/05/08 01:57:20;;;;;;;7.05;1.80;;;;;;;18.51;43.91;101635.31;5073644;28;20396;-61
2021/05/08 01:59:45;;;;;;;4.60;1.50;;;;;;;18.49;43.80;101628.34;5074804;28;20379;-61
2021/05/08 02:02:11;;;;;;;4.82;1.58;;;;;;;18.48;44.12;101633.72;5073890;28;20043;-62
2021/05/08 02:04:36;;;;;;;5.38;1.85;;;;;;;18.48;43.91;101634.59;5074391;28;20371;-61
2021/05/08 02:07:01;;;;;;;5.50;1.70;;;;;;;18.46;43.82;101633.81;5074430;28;20021;-61
2021/05/08 02:09:29;;;;;;;4.32;1.50;;;;;;;18.45;43.81;101632.16;5073408;28;20523;-61
2021/05/08 02:11:55;;;;;;;4.68;1.98;;;;;;;18.46;43.99;101631.19;5074442;28;20055;-61
2021/05/08 02:14:23;;;;;;;4.75;1.83;;;;;;;18.39;43.92;101615.88;5074054;28;20475;-61
2021/05/08 02:16:48;;;;;;;5.35;1.88;;;;;;;18.44;43.80;101622.53;5073785;28;20044;-61
2021/05/08 02:19:16;;;;;;;3.95;1.48;;;;;;;18.43;43.97;101615.56;5074159;28;20399;-60
2021/05/08 02:21:41;;;;;;;4.53;1.63;;;;;;;18.43;43.80;101606.81;5074448;28;20119;-60
2021/05/08 02:24:09;;;;;;;7.07;1.75;;;;;;;18.42;43.74;101598.06;5073387;28;20556;-60
2021/05/08 02:26:35;;;;;;;5.43;1.88;;;;;;;18.42;43.94;101608.63;5073885;28;20089;-61
2021/05/08 02:29:00;;;;;;;5.23;1.83;;;;;;;18.41;44.06;101600.81;5074243;28;20115;-61
2021/05/08 02:31:28;;;;;;;6.22;1.60;;;;;;;18.39;43.63;101595.63;5072999;28;20273;-61
2021/05/08 02:33:53;;;;;;;4.22;1.60;;;;;;;18.39;43.73;101593.00;5074271;28;20062;-62
2021/05/08 02:36:18;;;;;;;5.93;1.93;;;;;;;18.39;43.99;101585.09;5073735;28;20068;-61
2021/05/08 02:38:44;;;;;;;4.97;1.65;;;;;;;18.37;43.75;101581.69;5073236;28;20510;-60
2021/05/08 02:41:09;;;;;;;5.72;1.85;;;;;;;18.37;43.75;101589.59;5073872;28;20467;-60
2021/05/08 02:43:34;;;;;;;5.13;1.98;;;;;;;18.37;43.98;101586.97;5073879;28;20031;-61
2021/05/08 02:45:59;;;;;;;4.30;1.97;;;;;;;18.36;43.72;101580.03;5073200;28;20025;-60
2021/05/08 02:48:25;;;;;;;3.67;1.57;;;;;;;18.36;44.14;101579.16;5073157;28;20298;-60
2021/05/08 02:50:50;;;;;;;5.53;2.07;;;;;;;18.34;43.72;101576.66;5073700;28;20274;-61
2021/05/08 02:53:15;;;;;;;4.90;1.98;;;;;;;18.35;43.80;101575.69;5072622;28;20273;-61
2021/05/08 02:55:40;;;;;;;4.82;1.63;;;;;;;18.34;43.92;101570.50;5073566;28;20120;-61
2021/05/08 02:58:06;;;;;;;5.93;1.93;;;;;;;18.33;43.95;101566.22;5073480;28;20115;-60
2021/05/08 03:00:31;;;;;;;5.13;1.95;;;;;;;18.30;43.74;101562.81;5072548;28;20315;-61
2021/05/08 03:02:57;;;;;;;6.40;2.10;;;;;;;18.29;43.67;101561.16;5073478;28;20029;-61
2021/05/08 03:05:22;;;;;;;4.45;1.65;;;;;;;18.28;43.64;101551.53;5073115;28;20071;-60
2021/05/08 03:07:47;;;;;;;4.30;1.75;;;;;;;18.30;43.95;101551.41;5072561;28;20036;-60
2021/05/08 03:10:13;;;;;;;4.70;1.85;;;;;;;18.29;44.00;101544.44;5073226;28;20021;-61
2021/05/08 03:12:38;;;;;;;6.88;2.03;;;;;;;18.29;43.79;101542.66;5072617;28;20078;-61
2021/05/08 03:15:05;;;;;;;5.93;2.22;;;;;;;18.28;43.77;101550.69;5073433;28;20105;-61
2021/05/08 03:17:30;;;;;;;4.75;1.80;;;;;;;18.26;43.85;101545.53;5072912;28;20066;-60
2021/05/08 03:19:55;;;;;;;4.40;1.95;;;;;;;18.26;43.70;101540.25;5072414;28;20062;-60
2021/05/08 03:22:21;;;;;;;5.47;2.00;;;;;;;18.25;43.94;101540.34;5072667;28;20481;-61
2021/05/08 03:24:46;;;;;;;6.15;1.77;;;;;;;18.25;43.92;101537.72;5073125;28;20021;-61
2021/05/08 03:27:11;;;;;;;4.90;1.80;;;;;;;18.24;44.05;101536.84;5071998;28;20020;-61
2021/05/08 03:29:37;;;;;;;5.38;1.70;;;;;;;18.27;44.08;101534.00;5072869;28;20456;-61
2021/05/08 03:32:02;;;;;;;4.88;1.50;;;;;;;18.24;44.09;101523.66;5073056;28;20020;-61
2021/05/08 03:34:28;;;;;;;4.50;1.70;;;;;;;18.33;43.92;101531.91;5071864;28;20068;-61
2021/05/08 03:36:56;;;;;;;4.88;1.65;;;;;;;18.36;43.80;101527.25;5072754;28;20329;-61
2021/05/08 03:39:21;;;;;;;7.65;1.80;;;;;;;18.39;43.99;101528.78;5072462;28;20475;-60
2021/05/08 03:41:46;;;;;;;5.67;1.70;;;;;;;18.40;43.99;101528.69;5072058;28;20052;-61
2021/05/08 03:44:11;;;;;;;4.15;1.70;;;;;;;18.40;44.07;101520.78;5072831;28;20323;-61
2021/05/08 03:46:37;;;;;;;4.93;1.67;;;;;;;18.42;44.05;101515.38;5072470;28;20356;-61
2021/05/08 03:49:02;;;;;;;4.75;1.70;;;;;;;18.42;44.05;101518.03;5071347;28;20639;-61
2021/05/08 03:51:28;;;;;;;4.53;1.77;;;;;;;18.43;43.67;101514.44;5072203;28;20399;-61
2021/05/08 03:53:54;;;;;;;6.88;1.83;;;;;;;18.42;43.46;101513.59;5072700;28;20021;-61
2021/05/08 03:56:20;;;;;;;4.63;1.88;;;;;;;18.38;42.98;101509.50;5071272;28;20483;-60
2021/05/08 03:58:45;;;;;;;6.30;1.90;;;;;;;18.42;42.72;101510.09;5072865;28;20020;-60
2021/05/08 04:01:10;;;;;;;5.18;1.70;;;;;;;18.41;42.74;101508.44;5073222;28;20425;-62
2021/05/08 04:03:36;;;;;;;5.60;1.80;;;;;;;18.39;42.70;101507.69;5071556;28;20024;-61
2021/05/08 04:06:01;;;;;;;4.37;1.83;;;;;;;18.38;42.34;101506.84;5072624;28;20033;-61
2021/05/08 04:08:28;;;;;;;5.50;2.08;;;;;;;18.37;42.58;101497.25;5071832;28;20285;-62
2021/05/08 04:10:54;;;;;;;4.72;2.00;;;;;;;18.35;42.57;101501.78;5071422;28;20052;-62
2021/05/08 04:13:19;;;;;;;3.83;1.50;;;;;;;18.28;42.49;101490.00;5072337;28;20051;-61
2021/05/08 04:15:44;;;;;;;4.87;1.77;;;;;;;18.34;42.79;101499.25;5071724;28;20384;-61
2021/05/08 04:18:11;;;;;;;5.43;1.80;;;;;;;18.33;42.94;101495.78;5071948;28;20300;-61
2021/05/08 04:20:37;;;;;;;4.28;2.00;;;;;;;18.33;43.60;101500.22;5071938;28;20097;-61
2021/05/08 04:23:03;;;;;;;5.75;1.70;;;;;;;18.30;43.22;101498.66;5071570;28;20031;-62
2021/05/08 04:25:28;;;;;;;4.60;1.77;;;;;;;18.30;43.45;101498.66;5071647;28;20021;-62
2021/05/08 04:27:54;;;;;;;4.88;1.75;;;;;;;18.31;43.66;101495.06;5072134;28;20035;-61
2021/05/08 04:30:20;;;;;;;5.30;1.70;;;;;;;18.33;43.35;101495.78;5070767;28;20095;-60
2021/05/08 04:32:45;;;;;;;5.22;1.60;;;;;;;18.34;43.53;101491.34;5072280;28;20071;-60
2021/05/08 04:35:11;;;;;;;4.68;1.63;;;;;;;18.38;43.50;101488.38;5071821;28;20483;-60
2021/05/08 04:37:36;;;;;;;7.28;1.88;;;;;;;18.41;43.62;101492.59;5070728;28;20032;-60
2021/05/08 04:40:05;;;;;;;4.25;1.60;;;;;;;18.41;43.45;101487.31;5071631;28;20021;-60
2021/05/08 04:42:30;;;;;;;3.55;1.50;;;;;;;18.44;43.35;101492.38;5071494;28;20021;-61
2021/05/08 04:44:55;;;;;;;4.32;1.70;;;;;;;18.45;43.50;101488.78;5070903;28;20035;-61
2021/05/08 04:47:21;;;;;;;5.32;1.60;;;;;;;18.46;43.55;101485.19;5071230;28;20028;-61
2021/05/08 04:49:47;;;;;;;4.53;1.85;;;;;;;18.44;43.43;101480.03;5071446;28;20424;-61
2021/05/08 04:52:12;;;;;;;5.57;1.85;;;;;;;18.45;43.89;101471.16;5070736;28;20100;-61
2021/05/08 04:54:38;;;;;;;5.70;1.75;;;;;;;18.46;43.67;101470.19;5071423;28;20062;-60
2021/05/08 04:57:03;;;;;;;3.97;1.73;;;;;;;18.47;43.69;101468.41;5071857;28;20107;-62
2021/05/08 04:59:30;;;;;;;4.88;1.60;;;;;;;18.45;43.85;101471.16;5070776;28;20025;-61
2021/05/08 05:01:55;;;;;;;5.38;1.85;;;;;;;18.46;43.54;101472.00;5071780;28;20091;-61
2021/05/08 05:04:20;;;;;;;3.50;1.50;;;;;;;18.44;43.52;101471.28;5071332;28;20484;-60
2021/05/08 05:06:49;;;;;;;5.57;1.80;;;;;;;18.44;43.13;101472.09;5070545;28;20299;-60
2021/05/08 05:09:14;;;;;;;4.82;1.58;;;;;;;18.42;43.24;101467.88;5070834;28;20037;-60
2021/05/08 05:11:40;;;;;;;5.43;1.85;;;;;;;18.44;43.36;101471.28;5071439;28;20081;-61
2021/05/08 05:14:06;;;;;;;4.60;1.83;;;;;;;18.45;43.25;101467.66;5070653;28;20028;-60
2021/05/08 05:16:31;;;;;;;6.68;1.80;;;;;;;18.49;43.31;101469.13;5070925;28;20411;-63
2021/05/08 05:18:59;;;;;;;4.25;1.88;;;;;;;18.17;43.38;101403.72;5071495;28;20085;-61
2021/05/08 05:21:27;;;;;;;7.28;1.77;;;;;;;18.59;43.20;101466.66;5070402;28;20032;-63
2021/05/08 05:23:52;;;;;;;5.90;1.75;;;;;;;18.64;43.01;101470.66;5071111;28;20028;-62
2021/05/08 05:26:18;;;;;;;4.38;1.60;;;;;;;18.69;42.73;101465.00;5070223;28;20047;-62
2021/05/08 05:28:43;;;;;;;5.72;1.83;;;;;;;18.76;42.40;101471.53;5071383;28;20066;-62
2021/05/08 05:31:11;;;;;;;4.97;1.83;;;;;;;18.82;42.29;101464.97;5074149;28;20073;-61
2021/05/08 05:33:36;;;;;;;4.78;1.67;;;;;;;18.90;42.47;101475.84;5074068;28;20027;-62
2021/05/08 05:36:02;;;;;;;4.20;1.40;;;;;;;18.96;42.00;101477.16;5075058;28;20021;-61
2021/05/08 05:38:27;;;;;;;6.88;1.90;;;;;;;19.00;42.12;101478.63;5074596;28;20021;-62
2021/05/08 05:40:53;;;;;;;6.03;1.85;;;;;;;19.07;42.10;101476.34;5076231;28;20024;-62
2021/05/08 05:43:19;;;;;;;5.45;1.50;;;;;;;19.12;41.99;101485.63;5077622;28;20025;-62
2021/05/08 05:45:45;;;;;;;5.60;1.75;;;;;;;19.18;41.88;101481.66;5077257;28;20036;-61
2021/05/08 05:48:10;;;;;;;5.00;1.60;;;;;;;19.21;42.08;101484.91;5074780;28;20117;-62
2021/05/08 05:50:38;;;;;;;5.25;1.75;;;;;;;19.27;42.23;101486.25;5075096;28;20059;-63
2021/05/08 05:53:06;;;;;;;4.05;1.63;;;;;;;19.31;41.60;101493.00;5075850;28;20380;-62
2021/05/08 05:55:35;;;;;;;5.55;1.80;;;;;;;19.35;41.89;101493.63;5076912;28;20029;-62
2021/05/08 05:58:03;;;;;;;5.10;1.70;;;;;;;19.39;42.00;101489.75;5077262;28;20047;-62
2021/05/08 06:00:28;;;;;;;5.05;1.75;;;;;;;19.42;41.67;101486.88;5076374;28;20036;-63
2021/05/08 06:02:54;;;;;;;4.65;1.77;;;;;;;19.46;41.47;101485.69;5077422;28;20020;-63
2021/05/08 06:05:22;;;;;;;5.05;1.60;;;;;;;19.48;41.91;101477.66;5075051;28;20472;-62
2021/05/08 06:07:48;;;;;;;5.22;1.90;;;;;;;19.51;41.70;101486.19;5074549;28;20029;-65
2021/05/08 06:10:16;;;;;;;6.07;1.70;;;;;;;19.52;41.63;101479.94;5073849;28;20100;-63
2021/05/08 06:12:42;;;;;;;4.60;1.65;;;;;;;19.54;41.77;101480.66;5074893;28;20123;-64
2021/05/08 06:15:10;;;;;;;4.95;1.58;;;;;;;19.57;41.62;101474.31;5074522;28;20017;-60
2021/05/08 06:17:41;;;;;;;4.13;1.70;;;;;;;19.60;41.65;101475.84;5073871;28;20499;-64
2021/05/08 06:20:10;;;;;;;4.00;1.60;;;;;;;19.60;41.71;101470.56;5075397;28;20128;-62
2021/05/08 06:22:35;;;;;;;7.07;1.70;;;;;;;19.64;41.36;101469.38;5073885;28;20036;-63
2021/05/08 06:25:00;;;;;;;3.75;1.60;;;;;;;19.66;41.54;101472.72;5075468;28;20028;-63
2021/05/08 06:27:27;;;;;;;5.57;1.80;;;;;;;19.65;42.06;101463.13;5074560;28;20031;-64
2021/05/08 06:29:52;;;;;;;5.43;2.40;;;;;;;19.70;41.89;101458.31;5074539;28;20048;-64
2021/05/08 06:32:18;;;;;;;3.70;1.58;;;;;;;19.72;42.00;101453.75;5074856;28;20028;-64
2021/05/08 06:34:48;;;;;;;5.95;1.40;;;;;;;19.74;42.04;101451.81;5074560;28;20043;-63
2021/05/08 06:37:13;;;;;;;3.55;1.40;;;;;;;19.72;42.27;101446.66;5072817;28;20395;-64
2021/05/08 06:39:39;;;;;;;5.00;1.80;;;;;;;19.74;42.32;101457.09;5073916;28;20429;-62
2021/05/08 06:42:04;;;;;;;7.22;1.70;;;;;;;19.74;42.18;101449.16;5073486;28;20028;-63
2021/05/08 06:44:29;;;;;;;5.80;1.50;;;;;;;19.75;42.14;101445.56;5072563;28;20058;-63
2021/05/08 06:46:55;;;;;;;5.05;2.05;;;;;;;19.73;42.32;101436.94;5073566;28;20021;-64
2021/05/08 06:49:21;;;;;;;5.70;1.60;;;;;;;19.74;42.32;101439.44;5072637;28;20518;-62
2021/05/08 06:51:46;;;;;;;5.13;1.95;;;;;;;19.73;42.65;101444.88;5072983;28;20024;-62
2021/05/08 06:54:14;;;;;;;5.00;1.48;;;;;;;19.72;42.66;101443.16;5073764;28;20035;-63
2021/05/08 06:56:41;;;;;;;5.40;1.77;;;;;;;19.69;42.81;101438.97;5073134;28;20039;-63
2021/05/08 06:59:06;;;;;;;4.22;1.60;;;;;;;19.67;42.93;101435.59;5072181;28;20040;-62
2021/05/08 07:01:31;;;;;;;5.43;1.98;;;;;;;19.65;42.88;101436.69;5073189;28;20818;-62
2021/05/08 07:03:59;;;;;;;3.25;1.75;;;;;;;19.62;42.94;101429.84;5073329;28;20031;-62
2021/05/08 07:06:25;;;;;;;5.25;1.63;;;;;;;19.61;43.14;101436.06;5072572;28;20373;-63
2021/05/08 07:08:51;;;;;;;4.03;1.60;;;;;;;19.58;43.09;101423.09;5073886;28;20356;-63
2021/05/08 07:11:17;;;;;;;5.18;1.80;;;;;;;19.56;43.31;101425.03;5073174;28;20028;-62
2021/05/08 07:13:42;;;;;;;3.97;1.52;;;;;;;19.51;43.73;101424.53;5072736;28;20048;-62
2021/05/08 07:16:07;;;;;;;2.73;1.47;;;;;;;19.51;43.77;101424.53;5073130;28;20020;-62
2021/05/08 07:18:32;;;;;;;4.73;2.00;;;;;;;19.53;43.46;101422.63;5073102;28;20278;-63
2021/05/08 07:20:58;;;;;;;3.80;1.70;;;;;;;19.55;43.80;101420.69;5072466;28;20270;-63
2021/05/08 07:23:23;;;;;;;5.57;1.83;;;;;;;19.58;43.77;101423.09;5072800;28;20435;-63
2021/05/08 07:25:48;;;;;;;5.85;1.63;;;;;;;19.58;43.91;101421.31;5072322;28;20265;-62
2021/05/08 07:28:21;;;;;;;5.90;1.90;;;;;;;19.61;44.10;101419.38;5072411;28;20068;-62
2021/05/08 07:30:48;;;;;;;4.13;1.60;;;;;;;19.60;43.62;101413.25;5072221;28;20040;-62
2021/05/08 07:33:37;;;;;;;5.55;1.85;;;;;;;19.63;43.69;101413.03;5071852;28;20021;-62
2021/05/08 07:36:03;;;;;;;4.45;1.33;;;;;;;19.62;43.50;101408.69;5066978;28;20041;-62
2021/05/08 07:38:28;;;;;;;4.28;1.50;;;;;;;19.63;43.61;101413.03;5072403;28;20081;-62
2021/05/08 07:40:56;;;;;;;4.72;1.30;;;;;;;19.60;43.91;101402.69;5070033;28;20138;-60
2021/05/08 07:43:22;;;;;;;3.63;1.38;;;;;;;19.61;43.92;101404.34;5062589;28;20117;-61
2021/05/08 07:45:48;;;;;;;5.70;1.73;;;;;;;19.58;44.38;101396.66;5052843;28;20100;-63
2021/05/08 07:48:14;;;;;;;5.78;1.58;;;;;;;19.58;44.17;101396.66;5051222;28;20076;-63
2021/05/08 07:50:40;;;;;;;5.93;1.67;;;;;;;19.59;44.33;101390.41;5052578;28;20049;-61
2021/05/08 07:53:06;;;;;;;5.70;1.55;;;;;;;19.55;43.85;101384.53;5051875;28;20029;-63
2021/05/08 07:55:32;;;;;;;3.85;1.40;;;;;;;19.54;44.19;101388.13;5051077;28;20017;-66
2021/05/08 07:57:57;;;;;;;3.70;1.48;;;;;;;19.54;44.20;101384.66;5052063;28;20333;-62
2021/05/08 08:00:23;;;;;;;5.63;1.52;;;;;;;19.52;44.45;101379.47;5051871;28;20051;-61
2021/05/08 08:02:49;;;;;;;4.45;1.60;;;;;;;19.51;44.50;101377.78;5051564;28;20021;-64
2021/05/08 08:05:15;;;;;;;7.80;1.60;;;;;;;19.50;44.24;101368.19;5051811;28;20058;-63
2021/05/08 08:07:40;;;;;;;7.07;2.28;;;;;;;19.50;44.57;101360.28;5052390;28;20476;-65
2021/05/08 08:10:07;;;;;;;5.47;1.67;;;;;;;19.51;44.70;101358.47;5051777;28;20048;-66
2021/05/08 08:12:33;;;;;;;5.45;1.42;;;;;;;19.52;44.71;101360.97;5052041;28;20067;-64
2021/05/08 08:14:58;;;;;;;4.90;1.75;;;;;;;19.54;44.63;101356.41;5051479;28;20032;-63
2021/05/08 08:17:24;;;;;;;3.95;1.40;;;;;;;19.56;44.17;101351.00;5050846;28;20115;-63
2021/05/08 08:19:50;;;;;;;5.47;1.50;;;;;;;19.57;44.38;101357.97;5052367;28;20032;-63
2021/05/08 08:22:16;;;;;;;6.25;2.25;;;;;;;19.57;44.05;101356.16;5051231;28;20460;-65
2021/05/08 08:24:42;;;;;;;4.38;1.60;;;;;;;19.61;44.65;101356.75;5053107;28;20037;-66
2021/05/08 08:27:08;;;;;;;4.68;1.50;;;;;;;19.64;44.40;101350.38;5052949;28;20058;-67
2021/05/08 08:29:33;;;;;;;4.88;1.48;;;;;;;19.68;44.39;101352.66;5068632;28;20063;-66
2021/05/08 08:31:58;;;;;;;4.07;1.63;;;;;;;19.70;44.55;101348.09;5056280;28;20375;-66
2021/05/08 08:34:24;;;;;;;4.13;1.52;;;;;;;19.71;44.65;101352.44;5051777;28;20484;-64
2021/05/08 08:36:49;;;;;;;5.10;1.30;;;;;;;19.70;44.31;101349.91;5051169;28;20029;-66
2021/05/08 08:39:14;;;;;;;4.07;1.40;;;;;;;19.72;44.84;101347.97;5052428;28;20052;-64
2021/05/08 08:41:41;;;;;;;8.68;2.05;;;;;;;19.71;44.84;101348.91;5052821;28;20025;-67
2021/05/08 08:44:10;;;;;;;4.63;1.50;;;;;;;19.73;44.92;101333.78;5051406;28;20409;-66
2021/05/08 08:46:45;;;;;;;5.25;1.60;;;;;;;19.72;44.64;101329.47;5052159;28;20033;-65
2021/05/08 08:49:12;;;;;;;2.22;1.00;;;;;;;19.69;45.21;101332.34;5051424;28;20049;-63
2021/05/08 08:51:42;;;;;;;3.60;1.30;;;;;;;19.71;45.24;101330.41;5051269;28;20036;-64
2021/05/08 08:54:12;;;;;;;4.28;1.35;;;;;;;19.69;45.07;101332.34;5051541;28;20021;-64
2021/05/08 08:56:41;;;;;;;4.00;1.38;;;;;;;19.67;45.00;101329.00;5051487;28;20029;-64
2021/05/08 08:59:15;;;;;;;4.47;1.50;;;;;;;19.63;45.18;101317.84;5051324;28;20029;-64
2021/05/08 09:01:42;;;;;;;5.40;1.52;;;;;;;19.63;44.73;101306.41;5052139;28;20110;-65
2021/05/08 09:04:09;;;;;;;4.13;1.60;;;;;;;19.59;45.01;101311.09;5052618;28;20021;-67
2021/05/08 09:06:43;;;;;;;4.03;1.35;;;;;;;19.60;44.85;101298.72;5056114;28;20021;-65
2021/05/08 09:09:10;;;;;;;7.60;1.35;;;;;;;19.60;44.99;101296.94;5057312;28;20028;-68
2021/05/08 09:11:46;;;;;;;3.22;1.40;;;;;;;19.60;44.80;101293.41;5052952;28;20045;-65
2021/05/08 09:14:24;;;;;;;3.78;1.40;;;;;;;19.58;45.44;101293.53;5055936;28;20021;-65
2021/05/08 09:17:13;;;;;;;4.30;1.40;;;;;;;19.57;45.29;101292.72;5055626;28;20029;-65
2021/05/08 09:19:48;;;;;;;5.68;1.35;;;;;;;19.55;45.49;101291.13;5054917;28;20032;-65
2021/05/08 09:22:40;;;;;;;5.57;1.30;;;;;;;19.54;45.28;101286.84;5053498;28;20109;-64
2021/05/08 09:25:11;;;;;;;5.38;1.30;;;;;;;19.50;45.18;101293.31;5052805;28;20033;-64
2021/05/08 09:27:45;;;;;;;6.25;1.50;;;;;;;19.48;45.48;101290.81;5055121;28;20031;-64
2021/05/08 09:30:18;;;;;;;4.68;1.10;;;;;;;19.45;45.50;101298.16;5055792;28;20106;-63
2021/05/08 09:32:46;;;;;;;3.63;1.27;;;;;;;19.42;45.46;101293.09;5054774;28;20032;-64
2021/05/08 09:35:15;;;;;;;4.82;1.30;;;;;;;19.40;45.14;101288.75;5055016;28;20277;-63
2021/05/08 09:37:41;;;;;;;5.03;1.20;;;;;;;19.40;44.99;101287.94;5056017;28;20029;-66
2021/05/08 09:40:23;;;;;;;4.32;1.33;;;;;;;19.40;45.00;101288.75;5055036;28;20021;-66
2021/05/08 09:42:51;;;;;;;5.80;1.50;;;;;;;19.33;45.42;101274.38;5056006;28;20037;-65
2021/05/08 09:45:17;;;;;;;3.67;1.30;;;;;;;19.37;45.28;101282.88;5054897;28;20100;-64
2021/05/08 09:47:43;;;;;;;4.28;1.30;;;;;;;19.40;45.02;101280.84;5054709;28;20050;-66
2021/05/08 09:50:09;;;;;;;4.25;1.30;;;;;;;19.36;45.13;101273.31;5054874;28;20118;-62
2021/05/08 09:52:48;;;;;;;4.45;1.17;;;;;;;19.37;45.17;101277.59;5054575;28;20025;-63
2021/05/08 09:55:14;;;;;;;2.72;1.13;;;;;;;19.37;45.06;101281.06;5054098;28;20025;-64
2021/05/08 09:57:53;;;;;;;3.20;1.10;;;;;;;19.36;44.93;101279.41;5055210;28;20380;-64
2021/05/08 10:00:36;;;;;;;4.85;1.10;;;;;;;19.37;45.28;101275.78;5055973;28;20029;-64
2021/05/08 10:03:11;;;;;;;4.22;1.20;;;;;;;19.35;45.41;101275.09;5056637;28;20049;-62
2021/05/08 10:05:37;;;;;;;3.63;1.20;;;;;;;19.35;45.14;101276.91;5072210;28;20379;-62
2021/05/08 10:08:03;;;;;;;4.40;1.30;;;;;;;19.35;45.48;101282.19;5073872;28;20488;-63
2021/05/08 10:10:29;;;;;;;3.67;1.15;;;;;;;19.36;45.60;101278.59;5074470;28;20028;-63
2021/05/08 10:12:55;;;;;;;2.92;1.23;;;;;;;19.34;45.50;101262.00;5074801;28;20099;-60
2021/05/08 10:15:21;;;;;;;3.65;1.00;;;;;;;19.32;45.73;101264.75;5072802;28;20077;-62
2021/05/08 10:17:48;;;;;;;4.05;1.13;;;;;;;19.31;45.64;101265.75;5074733;28;20028;-62
2021/05/08 10:20:15;;;;;;;3.15;1.00;;;;;;;19.32;46.17;101266.56;5074152;28;20486;-63
2021/05/08 10:22:49;;;;;;;2.97;1.23;;;;;;;19.31;45.97;101262.22;5073622;28;20052;-62
2021/05/08 10:25:15;;;;;;;2.72;1.00;;;;;;;19.30;45.90;101255.28;5074352;28;20070;-64
2021/05/08 10:27:41;;;;;;;5.18;1.20;;;;;;;19.29;46.30;101248.31;5074291;28;20107;-63
2021/05/08 10:30:10;;;;;;;3.65;1.20;;;;;;;19.31;46.37;101247.25;5073988;28;20048;-64
2021/05/08 10:32:41;;;;;;;3.97;1.02;;;;;;;19.29;46.09;101246.50;5074157;28;20137;-61
2021/05/08 10:35:07;;;;;;;3.58;1.00;;;;;;;19.30;46.49;101242.06;5073883;28;20060;-63
2021/05/08 10:37:32;;;;;;;4.10;1.40;;;;;;;19.28;46.63;101238.69;5073001;28;20089;-62
2021/05/08 10:40:03;;;;;;;4.10;1.20;;;;;;;19.28;46.29;101239.56;5074193;28;20044;-61
2021/05/08 10:42:49;;;;;;;5.03;0.90;;;;;;;19.26;46.75;101225.59;5073424;28;20483;-62
2021/05/08 10:45:17;;;;;;;4.00;1.10;;;;;;;19.26;46.31;101222.13;5073020;28;20117;-63
2021/05/08 10:48:03;;;;;;;2.22;1.00;;;;;;;19.25;46.72;101221.31;5073990;28;20025;-62
2021/05/08 10:50:29;;;;;;;5.90;1.38;;;;;;;19.24;46.81;101206.41;5072581;28;20056;-62
2021/05/08 10:53:00;;;;;;;3.92;1.20;;;;;;;19.24;46.90;101200.28;5073492;28;20456;-63
2021/05/08 10:55:25;;;;;;;7.07;1.50;;;;;;;19.24;46.72;101192.34;5073533;28;20017;-64
2021/05/08 10:58:14;;;;;;;4.13;1.20;;;;;;;19.27;47.13;101195.59;5072252;28;20093;-62
2021/05/08 11:00:59;;;;;;;3.58;1.13;;;;;;;19.29;47.09;101183.06;5073487;28;20071;-62
2021/05/08 11:03:25;;;;;;;3.10;1.23;;;;;;;19.30;47.28;101182.13;5073539;28;20096;-62
2021/05/08 11:05:52;;;;;;;5.18;1.00;;;;;;;19.33;46.95;101155.44;5073500;28;20047;-66
2021/05/08 11:08:27;;;;;;;5.70;1.42;;;;;;;19.36;47.34;101164.94;5073679;28;20471;-65
2021/05/08 11:10:56;;;;;;;3.55;1.05;;;;;;;19.38;47.43;101157.72;5072958;28;20040;-64
2021/05/08 11:13:24;;;;;;;3.70;1.00;;;;;;;19.40;47.26;101153.16;5073836;28;20493;-63
2021/05/08 11:15:50;;;;;;;4.72;1.05;;;;;;;19.40;47.24;101151.31;5073636;28;20052;-63
2021/05/08 11:18:48;;;;;;;3.13;1.20;;;;;;;19.40;47.67;101155.78;5072635;28;20460;-63
2021/05/08 11:21:13;;;;;;;1.88;0.80;;;;;;;19.39;47.26;101157.59;5046874;28;20045;-65
2021/05/08 11:23:44;;;;;;;3.83;1.00;;;;;;;19.39;47.58;101146.16;5053582;28;20063;-64
2021/05/08 11:26:22;;;;;;;3.28;1.15;;;;;;;19.39;47.64;101139.09;5053127;28;20024;-65